Time;durP1;ratioP1;P1;durP2;ratioP2;P2;SDS_P1;SDS_P2;PMS_P1;PMS_P2;Temp;Humidity;BMP_temperature;BMP_pressure;BME280_temperature;BME280_humidity;BME280_pressure;Samples;Min_cycle;Max_cycle;Signal;HPM_P1;HPM_P2
2022/09/12 00:02:22;;;;;;;53.47;19.00;;;15.20;91.40;;;;;;4938528;29;20032;-62
2022/09/12 00:04:48;;;;;;;51.15;17.50;;;15.20;91.40;;;;;;4929464;29;20476;-63
2022/09/12 00:07:14;;;;;;;49.15;18.83;;;15.20;91.30;;;;;;4927842;29;20050;-62
2022/09/12 00:09:40;;;;;;;53.65;19.60;;;15.20;91.20;;;;;;4928818;29;20067;-62
2022/09/12 00:12:06;;;;;;;53.00;19.38;;;15.20;91.20;;;;;;4938309;29;20043;-62
2022/09/12 00:14:32;;;;;;;60.45;19.27;;;15.30;91.20;;;;;;4938690;29;20472;-62
2022/09/12 00:16:58;;;;;;;56.80;19.98;;;15.30;91.20;;;;;;4930252;29;20076;-62
2022/09/12 00:19:25;;;;;;;58.50;20.23;;;15.30;91.10;;;;;;4933467;29;20032;-64
2022/09/12 00:21:51;;;;;;;52.33;19.17;;;15.30;91.00;;;;;;4939880;29;20027;-63
2022/09/12 00:24:16;;;;;;;53.55;20.92;;;15.30;91.00;;;;;;4927091;29;20069;-63
2022/09/12 00:26:42;;;;;;;58.38;21.95;;;15.30;90.90;;;;;;4933193;29;20063;-62
2022/09/12 00:29:14;;;;;;;57.83;21.80;;;15.20;90.80;;;;;;4939969;29;20040;-63
2022/09/12 00:31:39;;;;;;;60.72;21.33;;;15.20;90.90;;;;;;4943142;29;20515;-63
2022/09/12 00:34:05;;;;;;;44.72;20.30;;;15.20;90.90;;;;;;4931902;29;20031;-62
2022/09/12 00:36:31;;;;;;;31.15;15.25;;;15.20;91.00;;;;;;4945855;29;20027;-63
2022/09/12 00:38:57;;;;;;;28.25;13.70;;;15.20;91.00;;;;;;4932946;29;20028;-63
2022/09/12 00:41:25;;;;;;;21.35;11.35;;;15.20;91.00;;;;;;4937455;29;20311;-63
2022/09/12 00:43:57;;;;;;;18.65;9.90;;;15.20;91.00;;;;;;4923423;29;20055;-63
2022/09/12 00:46:40;;;;;;;10.68;6.30;;;15.20;90.90;;;;;;4933323;29;20024;-62
2022/09/12 00:49:06;;;;;;;8.68;5.30;;;15.20;90.90;;;;;;4929211;29;20403;-63
2022/09/12 00:51:35;;;;;;;8.05;5.40;;;15.20;90.90;;;;;;4935754;29;20071;-62
2022/09/12 00:54:07;;;;;;;6.40;4.25;;;15.20;90.90;;;;;;4936703;29;20024;-62
2022/09/12 00:56:33;;;;;;;6.82;4.30;;;15.20;90.80;;;;;;4931133;29;20028;-63
2022/09/12 00:59:09;;;;;;;6.03;4.28;;;15.10;90.90;;;;;;4940657;29;20097;-62
2022/09/12 01:01:35;;;;;;;5.50;3.97;;;15.20;90.80;;;;;;4929371;29;20024;-62
2022/09/12 01:04:02;;;;;;;5.35;3.72;;;15.20;90.80;;;;;;4934045;29;20024;-62
2022/09/12 01:06:36;;;;;;;5.60;3.78;;;15.20;90.80;;;;;;4923418;29;20040;-63
2022/09/12 01:09:03;;;;;;;5.10;3.78;;;15.10;90.70;;;;;;4928156;29;20051;-62
2022/09/12 01:11:33;;;;;;;6.45;4.88;;;15.10;90.80;;;;;;4934766;29;20028;-62
2022/09/12 01:13:58;;;;;;;7.30;5.50;;;15.20;90.90;;;;;;4940851;29;20032;-62
2022/09/12 01:16:24;;;;;;;6.03;4.63;;;15.20;90.60;;;;;;4935584;29;20032;-62
2022/09/12 01:19:19;;;;;;;9.25;5.55;;;15.20;90.60;;;;;;4936469;29;20056;-63
2022/09/12 01:22:03;;;;;;;8.90;5.30;;;15.20;90.50;;;;;;4938009;29;20039;-63
2022/09/12 01:24:55;;;;;;;8.25;6.05;;;15.20;90.60;;;;;;4926677;29;20052;-62
2022/09/12 01:28:00;;;;;;;9.30;6.20;;;15.20;90.50;;;;;;4938262;29;20056;-62
2022/09/12 01:30:31;;;;;;;9.65;6.32;;;15.20;90.50;;;;;;4926277;29;20027;-63
2022/09/12 01:33:36;;;;;;;8.52;5.95;;;15.20;90.50;;;;;;4930163;29;20024;-62
2022/09/12 01:36:19;;;;;;;8.10;5.43;;;15.20;90.30;;;;;;4926146;29;20035;-62
2022/09/12 01:39:13;;;;;;;6.63;4.47;;;15.30;90.20;;;;;;4919312;29;20039;-63
2022/09/12 01:41:52;;;;;;;7.82;5.13;;;15.30;90.10;;;;;;4883008;29;20465;-62
2022/09/12 01:44:23;;;;;;;6.90;5.00;;;15.30;90.10;;;;;;4923454;29;20021;-62
2022/09/12 01:47:04;;;;;;;8.57;5.20;;;15.30;90.10;;;;;;4926092;29;20040;-62
2022/09/12 01:49:39;;;;;;;7.50;5.45;;;15.30;90.10;;;;;;4917990;29;20044;-62
2022/09/12 01:52:19;;;;;;;6.05;4.68;;;15.20;90.10;;;;;;4927165;29;20028;-62
2022/09/12 01:54:58;;;;;;;6.37;4.43;;;15.20;90.20;;;;;;4925838;29;20032;-62
2022/09/12 01:57:31;;;;;;;5.30;3.75;;;15.20;90.30;;;;;;4913163;29;20032;-63
2022/09/12 02:00:02;;;;;;;5.57;4.18;;;15.20;90.40;;;;;;4932092;29;20039;-63
2022/09/12 02:02:49;;;;;;;6.60;4.47;;;15.20;90.40;;;;;;4930090;29;20028;-63
2022/09/12 02:05:25;;;;;;;5.60;3.83;;;15.20;90.40;;;;;;4929418;29;20039;-62
2022/09/12 02:08:02;;;;;;;5.32;4.18;;;15.20;90.40;;;;;;4934857;29;20025;-63
2022/09/12 02:10:43;;;;;;;5.50;3.83;;;15.30;90.40;;;;;;4935281;29;20495;-63
2022/09/12 02:13:15;;;;;;;5.68;3.67;;;15.20;90.30;;;;;;4931237;29;20043;-63
2022/09/12 02:15:46;;;;;;;5.78;4.30;;;15.30;90.30;;;;;;4933198;29;20036;-62
2022/09/12 02:18:13;;;;;;;;;;;15.30;90.30;;;;;;4931002;29;20032;-62
2022/09/12 02:20:42;;;;;;;3.95;3.25;;;15.30;90.20;;;;;;4925504;29;19918;-62
2022/09/12 02:23:12;;;;;;;4.78;3.80;;;15.30;90.30;;;;;;4927942;29;20123;-62
2022/09/12 02:25:43;;;;;;;4.82;3.83;;;15.30;90.20;;;;;;4930010;29;20036;-62
2022/09/12 02:28:22;;;;;;;4.97;3.90;;;15.30;90.20;;;;;;4931258;29;20024;-63
2022/09/12 02:31:05;;;;;;;4.18;3.53;;;15.30;90.10;;;;;;4931465;29;20032;-62
2022/09/12 02:33:59;;;;;;;4.45;3.40;;;15.30;90.00;;;;;;4929884;29;20028;-62
2022/09/12 02:36:33;;;;;;;4.72;3.63;;;15.30;90.00;;;;;;4931287;29;20034;-62
2022/09/12 02:38:59;;;;;;;4.88;3.28;;;15.30;90.00;;;;;;4925787;29;20028;-62
2022/09/12 02:41:25;;;;;;;4.60;4.13;;;15.30;90.10;;;;;;4932546;29;20028;-63
2022/09/12 02:43:52;;;;;;;4.93;4.10;;;15.40;90.00;;;;;;4915599;29;20036;-63
2022/09/12 02:46:23;;;;;;;4.00;3.28;;;15.30;90.00;;;;;;4930877;29;20495;-62
2022/09/12 02:48:49;;;;;;;4.47;3.50;;;15.30;90.00;;;;;;4939211;29;20036;-63
2022/09/12 02:51:15;;;;;;;4.43;3.70;;;15.30;90.10;;;;;;4938626;29;20051;-62
2022/09/12 02:53:41;;;;;;;4.95;3.70;;;15.30;90.20;;;;;;4935028;29;20052;-62
2022/09/12 02:56:12;;;;;;;5.65;4.07;;;15.30;90.20;;;;;;4940731;29;20028;-63
2022/09/12 02:58:38;;;;;;;5.28;3.92;;;15.30;90.20;;;;;;4937315;29;20032;-63
2022/09/12 03:01:24;;;;;;;4.88;3.83;;;15.30;90.20;;;;;;4941141;29;20053;-64
2022/09/12 03:04:16;;;;;;;5.50;3.92;;;15.30;90.00;;;;;;4938031;29;20036;-62
2022/09/12 03:07:38;;;;;;;4.60;3.60;;;15.30;90.20;;;;;;4930215;29;20040;-63
2022/09/12 03:10:24;;;;;;;5.43;3.97;;;15.30;90.10;;;;;;4863053;29;20083;-63
2022/09/12 03:13:05;;;;;;;5.15;3.63;;;15.40;90.20;;;;;;4872236;29;20040;-63
2022/09/12 03:15:30;;;;;;;5.45;3.78;;;15.30;90.10;;;;;;4931627;29;20036;-62
2022/09/12 03:18:18;;;;;;;6.10;4.35;;;15.40;90.10;;;;;;4951681;29;20024;-64
2022/09/12 03:21:11;;;;;;;4.80;3.97;;;15.40;90.10;;;;;;4935973;29;20051;-63
2022/09/12 03:24:03;;;;;;;5.93;4.40;;;15.40;90.00;;;;;;4947768;29;20095;-62
2022/09/12 03:26:36;;;;;;;5.05;3.70;;;15.40;90.00;;;;;;4949232;29;20103;-62
2022/09/12 03:29:04;;;;;;;4.60;3.47;;;15.30;90.30;;;;;;4957046;29;20043;-62
2022/09/12 03:31:30;;;;;;;5.60;4.30;;;15.30;90.10;;;;;;4950435;29;20055;-62
2022/09/12 03:33:58;;;;;;;5.40;4.03;;;15.40;90.20;;;;;;4948639;29;20028;-63
2022/09/12 03:36:26;;;;;;;4.72;3.88;;;15.40;90.20;;;;;;4953816;29;20023;-62
2022/09/12 03:38:52;;;;;;;5.38;3.92;;;15.40;90.20;;;;;;4953433;29;20043;-63
2022/09/12 03:41:18;;;;;;;5.18;4.03;;;15.40;90.20;;;;;;4949979;29;20087;-63
2022/09/12 03:43:44;;;;;;;5.20;4.10;;;15.40;90.10;;;;;;4959916;29;20039;-63
2022/09/12 03:46:10;;;;;;;6.07;4.38;;;15.40;90.10;;;;;;4952905;29;20035;-63
2022/09/12 03:48:36;;;;;;;6.00;4.57;;;15.40;90.10;;;;;;4962745;29;20106;-62
2022/09/12 03:51:05;;;;;;;5.32;4.45;;;15.40;90.10;;;;;;4948384;29;20039;-62
2022/09/12 03:53:31;;;;;;;5.32;4.40;;;15.50;90.00;;;;;;4951785;29;20031;-63
2022/09/12 03:55:57;;;;;;;5.43;4.20;;;15.40;90.00;;;;;;4954558;29;20019;-63
2022/09/12 03:58:23;;;;;;;4.70;3.78;;;15.40;90.10;;;;;;4964801;29;20027;-62
2022/09/12 04:00:49;;;;;;;4.53;3.83;;;15.50;90.00;;;;;;4959140;29;20023;-63
2022/09/12 04:03:18;;;;;;;5.35;4.05;;;15.50;90.00;;;;;;4961365;29;20058;-64
2022/09/12 04:05:43;;;;;;;5.13;3.88;;;15.50;90.00;;;;;;4949193;29;20055;-64
2022/09/12 04:08:09;;;;;;;4.63;3.60;;;15.50;89.90;;;;;;4951856;29;20031;-62
2022/09/12 04:10:34;;;;;;;5.30;4.00;;;15.50;89.90;;;;;;4956050;29;20055;-62
2022/09/12 04:13:00;;;;;;;4.95;3.92;;;15.60;89.90;;;;;;4948732;29;20047;-62
2022/09/12 04:15:26;;;;;;;4.80;3.90;;;15.50;89.80;;;;;;4948659;29;20046;-62
2022/09/12 04:17:52;;;;;;;5.45;4.45;;;15.60;89.90;;;;;;4953268;28;20039;-63
2022/09/12 04:20:18;;;;;;;5.20;4.10;;;15.60;89.80;;;;;;4949575;29;20036;-62
2022/09/12 04:22:43;;;;;;;4.85;4.05;;;15.60;89.80;;;;;;4954397;29;20059;-63
2022/09/12 04:25:10;;;;;;;4.75;3.92;;;15.60;89.80;;;;;;4955395;29;20043;-62
2022/09/12 04:27:36;;;;;;;4.93;4.15;;;15.60;89.90;;;;;;4957848;29;20151;-63
2022/09/12 04:30:03;;;;;;;4.75;4.20;;;15.60;90.00;;;;;;4944064;29;20034;-62
2022/09/12 04:32:30;;;;;;;4.97;4.10;;;15.60;90.00;;;;;;4952443;29;20034;-62
2022/09/12 04:34:56;;;;;;;5.38;4.18;;;15.70;90.10;;;;;;4948874;29;20056;-63
2022/09/12 04:37:22;;;;;;;5.28;3.97;;;15.70;89.90;;;;;;4947611;29;20024;-63
2022/09/12 04:39:48;;;;;;;4.70;3.65;;;15.70;89.60;;;;;;4949794;29;20494;-63
2022/09/12 04:42:14;;;;;;;5.68;4.30;;;15.80;89.50;;;;;;4960434;29;20030;-63
2022/09/12 04:44:40;;;;;;;5.72;4.43;;;15.80;89.40;;;;;;4951141;29;20031;-62
2022/09/12 04:47:06;;;;;;;4.78;3.72;;;15.80;89.20;;;;;;4950498;29;20110;-62
2022/09/12 04:49:32;;;;;;;5.93;4.38;;;15.80;89.20;;;;;;4947396;29;20376;-64
2022/09/12 04:51:58;;;;;;;5.70;4.22;;;15.90;89.20;;;;;;4937738;29;20047;-63
2022/09/12 04:54:24;;;;;;;5.07;4.18;;;15.90;89.20;;;;;;4955790;29;20035;-63
2022/09/12 04:56:51;;;;;;;4.95;3.83;;;15.90;89.20;;;;;;4954712;29;20043;-64
2022/09/12 04:59:18;;;;;;;5.38;4.03;;;15.90;89.00;;;;;;4957111;29;20027;-63
2022/09/12 05:01:45;;;;;;;5.88;4.53;;;15.90;89.30;;;;;;4955165;29;20108;-63
2022/09/12 05:04:13;;;;;;;5.40;4.35;;;16.00;89.20;;;;;;4948703;29;20368;-62
2022/09/12 05:06:40;;;;;;;6.13;4.63;;;16.00;89.30;;;;;;4946182;29;20098;-62
2022/09/12 05:09:10;;;;;;;5.82;4.95;;;16.10;89.30;;;;;;4941271;29;20051;-63
2022/09/12 05:11:37;;;;;;;7.20;5.00;;;16.10;89.10;;;;;;4934517;29;20087;-63
2022/09/12 05:14:03;;;;;;;6.13;4.63;;;16.20;89.00;;;;;;4928973;29;20538;-62
2022/09/12 05:16:30;;;;;;;5.35;4.50;;;16.10;88.80;;;;;;4934004;29;20020;-62
2022/09/12 05:18:57;;;;;;;6.38;4.82;;;16.20;88.70;;;;;;4922588;29;20036;-63
2022/09/12 05:21:23;;;;;;;5.68;4.65;;;16.20;88.80;;;;;;4923685;29;20036;-63
2022/09/12 05:23:55;;;;;;;6.32;4.90;;;16.20;88.40;;;;;;4929423;29;20043;-63
2022/09/12 05:26:21;;;;;;;5.80;4.60;;;16.30;88.40;;;;;;4922097;29;20024;-63
2022/09/12 05:28:48;;;;;;;6.72;4.93;;;16.30;88.50;;;;;;4938647;29;20040;-63
2022/09/12 05:31:15;;;;;;;6.57;5.30;;;16.30;88.60;;;;;;4939339;29;20068;-63
2022/09/12 05:33:43;;;;;;;6.82;5.43;;;16.30;88.50;;;;;;4934924;29;20028;-63
2022/09/12 05:36:18;;;;;;;6.45;4.88;;;16.30;88.50;;;;;;4929906;29;20093;-63
2022/09/12 05:38:44;;;;;;;6.40;4.45;;;16.40;88.40;;;;;;4924258;29;20555;-64
2022/09/12 05:41:13;;;;;;;5.30;4.05;;;16.40;88.20;;;;;;4920946;29;20020;-63
2022/09/12 05:43:41;;;;;;;6.10;4.57;;;16.40;88.00;;;;;;4927492;29;20028;-63
2022/09/12 05:46:15;;;;;;;4.95;4.22;;;16.40;88.20;;;;;;4927682;29;21335;-63
2022/09/12 05:48:42;;;;;;;6.35;4.70;;;16.40;88.20;;;;;;4917315;29;20064;-64
2022/09/12 05:51:18;;;;;;;7.13;5.32;;;16.50;88.40;;;;;;4923410;29;20051;-63
2022/09/12 05:53:44;;;;;;;7.65;4.85;;;16.50;88.30;;;;;;4918276;29;20020;-63
2022/09/12 05:56:11;;;;;;;7.03;5.57;;;16.50;88.20;;;;;;4916607;29;20032;-63
2022/09/12 05:58:41;;;;;;;7.35;5.65;;;16.50;88.10;;;;;;4917523;29;20037;-64
2022/09/12 06:01:14;;;;;;;7.93;5.80;;;16.50;87.90;;;;;;4916575;29;20712;-64
2022/09/12 06:03:48;;;;;;;7.75;5.90;;;16.50;87.90;;;;;;4919351;29;20032;-63
2022/09/12 06:06:15;;;;;;;8.57;6.00;;;16.60;87.80;;;;;;4913925;29;21217;-63
2022/09/12 06:08:43;;;;;;;7.50;5.93;;;16.60;87.90;;;;;;4912584;29;20048;-64
2022/09/12 06:11:11;;;;;;;8.23;6.32;;;16.60;87.90;;;;;;4916020;29;20032;-62
2022/09/12 06:13:41;;;;;;;8.40;6.30;;;16.70;88.10;;;;;;4925217;29;20032;-64
2022/09/12 06:16:15;;;;;;;7.47;5.57;;;16.60;87.90;;;;;;4919592;29;20096;-62
2022/09/12 06:18:41;;;;;;;8.55;6.18;;;16.70;88.00;;;;;;4918971;29;20074;-64
2022/09/12 06:21:11;;;;;;;10.32;7.18;;;16.70;88.10;;;;;;4913266;29;20037;-65
2022/09/12 06:23:38;;;;;;;8.77;6.67;;;16.70;88.00;;;;;;4905910;29;20041;-64
2022/09/12 06:26:05;;;;;;;9.23;6.45;;;16.80;88.00;;;;;;4979967;23;20298;-83
2022/09/12 06:28:33;;;;;;;7.68;5.45;;;16.80;87.70;;;;;;4912910;28;20039;-83
2022/09/12 06:31:21;;;;;;;8.43;6.10;;;16.80;87.70;;;;;;4935746;28;20023;-82
2022/09/12 06:33:49;;;;;;;8.05;5.90;;;16.80;87.50;;;;;;4918214;29;20075;-83
2022/09/12 06:36:23;;;;;;;8.13;5.95;;;16.80;87.60;;;;;;4929377;29;20032;-82
2022/09/12 06:38:59;;;;;;;7.45;5.53;;;16.80;87.70;;;;;;4922742;29;20479;-83
2022/09/12 06:41:26;;;;;;;10.48;6.80;;;16.80;87.70;;;;;;4929024;29;20035;-82
2022/09/12 06:43:52;;;;;;;8.48;6.28;;;16.80;87.80;;;;;;4928771;29;20038;-83
2022/09/12 06:46:18;;;;;;;8.82;6.35;;;16.80;87.60;;;;;;4936098;28;20521;-83
2022/09/12 06:48:44;;;;;;;11.27;6.70;;;16.80;87.60;;;;;;4927615;29;20034;-83
2022/09/12 06:51:12;;;;;;;10.32;5.90;;;16.80;87.70;;;;;;4926047;29;20023;-84
2022/09/12 06:53:43;;;;;;;9.50;6.32;;;16.90;87.80;;;;;;4929065;29;20495;-83
2022/09/12 06:56:15;;;;;;;8.45;5.47;;;16.90;88.00;;;;;;4938761;28;20049;-84
2022/09/12 06:58:42;;;;;;;8.70;6.55;;;16.90;88.00;;;;;;4924007;28;20090;-83
2022/09/12 07:01:29;;;;;;;10.35;6.72;;;16.90;88.20;;;;;;4925225;28;20038;-85
2022/09/12 07:04:00;;;;;;;9.38;6.45;;;16.90;88.10;;;;;;4920021;28;20961;-85
2022/09/12 07:06:37;;;;;;;10.00;6.73;;;17.00;88.30;;;;;;4923030;29;20041;-85
2022/09/12 07:09:07;;;;;;;9.05;6.40;;;17.00;88.10;;;;;;4928211;29;20027;-87
2022/09/12 07:11:35;;;;;;;8.75;6.53;;;17.00;88.10;;;;;;4921830;29;20115;-85
2022/09/12 07:14:03;;;;;;;8.50;6.20;;;17.10;88.20;;;;;;4925895;28;20070;-85
2022/09/12 07:16:30;;;;;;;8.15;6.38;;;17.10;88.10;;;;;;4936367;28;20110;-86
2022/09/12 07:19:00;;;;;;;10.50;6.68;;;17.10;88.10;;;;;;4907252;29;20032;-84
2022/09/12 07:21:28;;;;;;;6.43;4.95;;;17.10;87.90;;;;;;4923876;28;20570;-84
2022/09/12 07:23:56;;;;;;;8.20;5.97;;;17.10;88.00;;;;;;4931429;29;20051;-83
2022/09/12 07:26:25;;;;;;;8.20;6.28;;;17.20;88.00;;;;;;4915033;29;20530;-86
2022/09/12 07:29:12;;;;;;;8.63;6.20;;;17.20;88.10;;;;;;4918218;29;20135;-87
2022/09/12 07:32:18;;;;;;;8.02;5.75;;;17.20;88.20;;;;;;4925239;28;20032;-88
2022/09/12 07:41:40;;;;;;;9.13;6.60;;;17.20;88.10;;;;;;4889267;29;20033;-83
2022/09/12 07:44:09;;;;;;;8.65;5.95;;;17.20;87.90;;;;;;4887193;29;20041;-83
2022/09/12 07:46:38;;;;;;;8.60;6.35;;;17.20;88.00;;;;;;4885944;29;20037;-82
2022/09/12 07:49:07;;;;;;;8.20;6.18;;;17.20;88.00;;;;;;4896174;29;20044;-84
2022/09/12 07:51:42;;;;;;;6.80;5.30;;;17.20;88.10;;;;;;4927623;29;20648;-83
2022/09/12 07:54:15;;;;;;;7.60;5.63;;;17.30;88.80;;;;;;4921290;29;20129;-82
2022/09/12 07:57:16;;;;;;;7.57;5.72;;;17.30;88.10;;;;;;4922188;29;20058;-83
2022/09/12 08:00:25;;;;;;;;;;;;;;;;;;;;;
2022/09/12 08:03:15;;;;;;;6.50;5.15;;;17.40;88.20;;;;;;4902442;29;20043;-86
2022/09/12 08:06:32;;;;;;;;;;;;;;;;;;;;;
2022/09/12 08:11:44;;;;;;;8.13;5.72;;;17.40;87.80;;;;;;4932342;29;20041;-84
2022/09/12 08:14:20;;;;;;;8.32;6.13;;;17.40;88.00;;;;;;4929131;28;20142;-84
2022/09/12 08:16:51;;;;;;;7.15;5.80;;;17.40;88.00;;;;;;4938194;28;20051;-84
2022/09/12 08:19:17;;;;;;;;;;;17.50;88.00;;;;;;4925242;29;20588;-84
2022/09/12 08:21:45;;;;;;;7.13;5.65;;;17.40;87.70;;;;;;4931169;29;19914;-83
2022/09/12 08:24:32;;;;;;;7.32;5.82;;;17.50;87.80;;;;;;4919908;29;20114;-84
2022/09/12 08:27:15;;;;;;;8.57;6.60;;;17.60;87.90;;;;;;4916031;29;20043;-84
2022/09/12 08:29:44;;;;;;;9.10;6.38;;;17.60;87.60;;;;;;4916581;29;20040;-84
2022/09/12 08:32:10;;;;;;;8.73;6.22;;;17.60;87.60;;;;;;4911106;29;20028;-84
2022/09/12 08:34:38;;;;;;;8.20;6.10;;;17.60;87.30;;;;;;4917304;29;20047;-85
2022/09/12 08:37:10;;;;;;;8.23;6.28;;;17.60;87.30;;;;;;4913741;29;20036;-83
2022/09/12 08:39:55;;;;;;;7.68;5.75;;;17.60;87.20;;;;;;4914112;29;21500;-85
2022/09/12 08:42:47;;;;;;;8.35;5.78;;;17.70;87.30;;;;;;4916877;29;20391;-84
2022/09/12 08:45:21;;;;;;;8.10;5.47;;;17.70;87.30;;;;;;4916684;29;20032;-83
2022/09/12 08:47:59;;;;;;;7.35;6.10;;;17.70;87.30;;;;;;4916415;29;20031;-83
2022/09/12 08:50:25;;;;;;;8.35;5.85;;;17.70;87.10;;;;;;4915636;29;20039;-82
2022/09/12 08:52:58;;;;;;;7.90;5.70;;;17.70;87.10;;;;;;4918203;29;20048;-84
2022/09/12 08:55:40;;;;;;;6.75;5.38;;;17.70;87.20;;;;;;4911745;29;20020;-84
2022/09/12 08:58:16;;;;;;;6.45;5.05;;;17.80;87.10;;;;;;4915902;29;20038;-83
2022/09/12 09:00:53;;;;;;;7.68;5.93;;;17.80;87.20;;;;;;4915479;29;20453;-83
2022/09/12 09:03:33;;;;;;;7.78;5.47;;;17.80;87.10;;;;;;4903620;29;20040;-83
2022/09/12 09:06:22;;;;;;;6.50;5.17;;;17.70;87.50;;;;;;4915831;29;20487;-84
2022/09/12 09:09:01;;;;;;;6.60;5.47;;;17.70;87.50;;;;;;4913828;29;20032;-83
2022/09/12 09:12:18;;;;;;;7.40;5.30;;;17.70;87.60;;;;;;4911830;29;20054;-83
2022/09/12 09:14:50;;;;;;;7.72;4.97;;;17.70;87.70;;;;;;4898761;29;20435;-83
2022/09/12 09:17:38;;;;;;;6.72;5.20;;;17.80;88.10;;;;;;4910354;29;20122;-83
2022/09/12 09:20:27;;;;;;;6.78;5.07;;;17.80;88.30;;;;;;4914324;29;20165;-83
2022/09/12 09:23:07;;;;;;;6.70;5.25;;;17.90;88.50;;;;;;4912196;29;20529;-82
2022/09/12 09:25:43;;;;;;;7.63;5.72;;;17.90;88.40;;;;;;4915607;29;20071;-83
2022/09/12 09:28:21;;;;;;;5.25;4.55;;;18.00;88.50;;;;;;4912460;29;20518;-83
2022/09/12 09:30:57;;;;;;;;;;;;;;;;;;;;;
2022/09/12 09:33:33;;;;;;;6.32;5.07;;;18.20;87.80;;;;;;4908630;29;20028;-82
2022/09/12 09:36:48;;;;;;;7.10;5.28;;;18.30;87.80;;;;;;4897038;29;20051;-83
2022/09/12 09:39:37;;;;;;;6.10;4.93;;;18.40;87.60;;;;;;4897618;29;20063;-83
2022/09/12 09:42:09;;;;;;;6.10;5.20;;;18.50;87.70;;;;;;4897144;29;20040;-85
2022/09/12 09:44:37;;;;;;;5.80;4.47;;;18.50;87.50;;;;;;4899412;29;20491;-84
2022/09/12 09:47:13;;;;;;;6.40;5.00;;;18.60;87.60;;;;;;4899549;29;20043;-84
2022/09/12 09:49:39;;;;;;;7.15;5.32;;;18.70;87.20;;;;;;4897894;29;20094;-84
2022/09/12 09:52:07;;;;;;;5.40;4.60;;;18.80;86.60;;;;;;4892792;29;20500;-84
2022/09/12 09:54:41;;;;;;;5.85;4.70;;;18.80;86.20;;;;;;4899539;29;20130;-85
2022/09/12 09:57:33;;;;;;;5.93;4.88;;;18.90;85.70;;;;;;4915314;29;20024;-85
2022/09/12 10:00:20;;;;;;;6.82;5.20;;;18.90;85.40;;;;;;4891871;29;20099;-83
2022/09/12 10:03:01;;;;;;;6.78;4.88;;;18.90;85.40;;;;;;4884856;29;20044;-83
2022/09/12 10:05:27;;;;;;;6.75;5.40;;;19.00;85.20;;;;;;4897512;29;20046;-84
2022/09/12 10:07:53;;;;;;;6.88;5.38;;;19.00;84.90;;;;;;4899574;29;20036;-83
2022/09/12 10:10:22;;;;;;;6.20;4.90;;;19.00;84.70;;;;;;4903324;29;20066;-82
2022/09/12 10:12:48;;;;;;;4.85;4.05;;;19.00;84.60;;;;;;4896011;29;20027;-82
2022/09/12 10:15:26;;;;;;;6.20;4.88;;;19.10;84.50;;;;;;4893181;29;20344;-83
2022/09/12 10:17:54;;;;;;;5.80;4.68;;;19.10;84.40;;;;;;4914374;29;20046;-83
2022/09/12 10:20:29;;;;;;;6.43;5.18;;;19.10;84.20;;;;;;4899367;29;20035;-84
2022/09/12 10:22:57;;;;;;;6.63;5.32;;;19.10;84.10;;;;;;4904767;29;20035;-83
2022/09/12 10:25:24;;;;;;;6.22;4.85;;;19.10;84.10;;;;;;4905272;29;20051;-83
2022/09/12 10:27:55;;;;;;;7.25;5.53;;;19.20;84.10;;;;;;4899408;29;20047;-83
2022/09/12 10:30:23;;;;;;;7.15;5.57;;;19.20;84.00;;;;;;4900641;29;20031;-84
2022/09/12 10:32:50;;;;;;;6.00;5.13;;;19.20;83.90;;;;;;4902129;29;20064;-83
2022/09/12 10:35:24;;;;;;;6.68;5.40;;;19.30;83.70;;;;;;4917556;29;20056;-83
2022/09/12 10:37:57;;;;;;;8.45;6.85;;;19.30;83.30;;;;;;4917771;29;20038;-83
2022/09/12 10:40:36;;;;;;;9.13;7.20;;;19.30;83.10;;;;;;4909524;29;20035;-82
2022/09/12 10:43:24;;;;;;;7.57;6.53;;;19.30;82.60;;;;;;4907752;29;20040;-84
2022/09/12 10:45:50;;;;;;;9.18;6.97;;;19.20;82.10;;;;;;4923835;29;20530;-83
2022/09/12 10:48:30;;;;;;;8.02;6.30;;;19.10;82.10;;;;;;4905962;29;20447;-84
2022/09/12 10:50:57;;;;;;;8.35;6.70;;;19.00;82.10;;;;;;4912084;29;20028;-82
2022/09/12 10:53:31;;;;;;;8.23;6.13;;;18.90;82.50;;;;;;4896667;29;20049;-82
2022/09/12 10:56:26;;;;;;;7.30;5.80;;;18.90;83.00;;;;;;4891093;29;20107;-82
2022/09/12 10:59:18;;;;;;;7.03;5.47;;;18.80;83.00;;;;;;4878261;29;20067;-82
2022/09/12 11:01:48;;;;;;;7.72;5.97;;;18.90;83.10;;;;;;4912280;29;20139;-83
2022/09/12 11:04:22;;;;;;;7.93;6.10;;;18.90;83.10;;;;;;4909178;29;20035;-82
2022/09/12 11:06:58;;;;;;;7.72;5.95;;;19.00;83.00;;;;;;4902514;29;20055;-83
2022/09/12 11:09:49;;;;;;;8.25;6.55;;;19.00;82.90;;;;;;4908659;29;20127;-83
2022/09/12 11:12:39;;;;;;;8.80;6.38;;;19.00;82.80;;;;;;4877365;29;20633;-83
2022/09/12 11:15:21;;;;;;;8.85;6.95;;;19.00;82.80;;;;;;4897951;29;20032;-84
2022/09/12 11:17:58;;;;;;;8.35;6.28;;;19.10;82.70;;;;;;4900688;29;20047;-84
2022/09/12 11:20:48;;;;;;;8.88;6.85;;;19.10;82.60;;;;;;4909963;29;20027;-84
2022/09/12 11:23:48;;;;;;;10.43;7.72;;;19.10;82.30;;;;;;4903477;29;20154;-84
2022/09/12 11:26:14;;;;;;;9.70;7.88;;;19.10;82.10;;;;;;4905943;29;20052;-84
2022/09/12 11:29:07;;;;;;;8.63;7.53;;;19.00;82.00;;;;;;4899628;29;20043;-84
2022/09/12 11:31:56;;;;;;;8.93;7.47;;;19.00;82.10;;;;;;4907831;29;20044;-84
2022/09/12 11:34:33;;;;;;;10.55;8.30;;;19.00;82.30;;;;;;4879844;29;20071;-84
2022/09/12 11:37:20;;;;;;;10.85;8.30;;;19.00;82.20;;;;;;4906435;29;20032;-84
2022/09/12 11:39:51;;;;;;;11.45;8.40;;;18.90;82.30;;;;;;4895386;29;20083;-84
2022/09/12 11:42:22;;;;;;;12.98;8.93;;;18.90;82.30;;;;;;4897426;29;20028;-83
2022/09/12 11:45:12;;;;;;;10.65;8.45;;;18.90;82.20;;;;;;4913671;29;21041;-84
2022/09/12 11:47:39;;;;;;;11.50;8.65;;;18.90;82.10;;;;;;4900057;29;20032;-85
2022/09/12 11:50:22;;;;;;;14.38;9.50;;;18.90;82.30;;;;;;4900815;29;20119;-84
2022/09/12 11:52:50;;;;;;;15.52;10.20;;;18.90;82.50;;;;;;4903157;29;20032;-84
2022/09/12 11:55:24;;;;;;;14.45;10.65;;;18.90;82.50;;;;;;4891379;29;20126;-84
2022/09/12 11:57:57;;;;;;;15.73;9.77;;;18.90;82.30;;;;;;4914995;29;20028;-83
2022/09/12 12:00:29;;;;;;;20.58;12.50;;;18.90;82.20;;;;;;4913237;29;22332;-85
2022/09/12 12:03:08;;;;;;;21.83;13.32;;;18.90;82.30;;;;;;4895739;29;20039;-85
2022/09/12 12:05:59;;;;;;;18.90;13.02;;;18.90;82.20;;;;;;4899443;29;20024;-83
2022/09/12 12:08:28;;;;;;;18.48;12.38;;;18.90;82.40;;;;;;4873665;29;20043;-84
2022/09/12 12:10:59;;;;;;;16.48;11.27;;;18.90;82.40;;;;;;4921284;29;20062;-84
2022/09/12 12:13:44;;;;;;;16.30;11.38;;;18.90;82.40;;;;;;4901155;29;20418;-84
2022/09/12 12:16:29;;;;;;;14.90;11.15;;;18.90;82.40;;;;;;4916250;29;20036;-84
2022/09/12 12:18:58;;;;;;;16.67;10.82;;;18.80;82.40;;;;;;4902363;29;20123;-85
2022/09/12 12:21:39;;;;;;;17.00;11.25;;;18.80;82.60;;;;;;4913121;29;20023;-83
2022/09/12 12:24:08;;;;;;;17.25;11.02;;;18.90;82.50;;;;;;4915154;29;20044;-82
2022/09/12 12:26:41;;;;;;;15.65;10.88;;;18.90;82.50;;;;;;4922836;29;20058;-83
2022/09/12 12:29:16;;;;;;;14.90;10.75;;;18.90;82.50;;;;;;4917301;29;20074;-83
2022/09/12 12:32:03;;;;;;;14.73;8.82;;;19.00;82.40;;;;;;4917229;29;20023;-84
2022/09/12 12:34:35;;;;;;;13.25;9.32;;;19.00;82.40;;;;;;4917709;29;20050;-83
2022/09/12 12:37:19;;;;;;;15.20;10.25;;;19.00;82.50;;;;;;4913976;28;20023;-83
2022/09/12 12:39:46;;;;;;;13.38;9.75;;;19.00;82.30;;;;;;4913486;29;20110;-83
2022/09/12 12:42:35;;;;;;;16.55;10.13;;;19.10;82.30;;;;;;4914057;29;20031;-84
2022/09/12 12:45:27;;;;;;;11.10;8.07;;;19.10;82.10;;;;;;4928634;28;20039;-83
2022/09/12 12:47:57;;;;;;;11.38;8.52;;;19.20;82.10;;;;;;4912907;29;20032;-83
2022/09/12 12:50:25;;;;;;;13.77;9.80;;;19.20;81.90;;;;;;4914860;29;20040;-83
2022/09/12 12:53:23;;;;;;;16.77;10.43;;;19.20;81.80;;;;;;4919200;28;20545;-83
2022/09/12 12:55:51;;;;;;;14.40;9.55;;;19.20;81.70;;;;;;4890148;29;20043;-84
2022/09/12 12:58:37;;;;;;;12.45;8.00;;;19.20;81.60;;;;;;4918446;29;20039;-83
2022/09/12 13:01:22;;;;;;;10.15;8.05;;;19.20;81.50;;;;;;4916754;28;20025;-82
2022/09/12 13:04:04;;;;;;;10.93;7.50;;;19.20;81.50;;;;;;4913667;29;20031;-82
2022/09/12 13:06:36;;;;;;;10.93;8.13;;;19.20;81.40;;;;;;4914848;29;20047;-83
2022/09/12 13:09:16;;;;;;;13.05;8.80;;;19.10;82.00;;;;;;4926151;28;20036;-82
2022/09/12 13:11:43;;;;;;;11.10;8.25;;;19.10;81.50;;;;;;4916120;29;20031;-84
2022/09/12 13:14:34;;;;;;;11.75;8.25;;;19.10;81.40;;;;;;4916239;29;20091;-84
2022/09/12 13:17:04;;;;;;;10.55;8.45;;;19.10;81.20;;;;;;4934438;28;20042;-83
2022/09/12 13:19:33;;;;;;;10.43;7.72;;;19.00;81.40;;;;;;4910468;29;20058;-83
2022/09/12 13:22:07;;;;;;;10.63;7.55;;;19.00;81.30;;;;;;4910485;29;20106;-84
2022/09/12 13:24:41;;;;;;;9.90;7.28;;;19.00;81.30;;;;;;4912186;29;20031;-84
2022/09/12 13:27:24;;;;;;;9.60;7.13;;;19.00;81.40;;;;;;4912613;29;20134;-84
2022/09/12 13:30:06;;;;;;;9.00;6.88;;;18.90;81.30;;;;;;4910730;29;20779;-84
2022/09/12 13:32:32;;;;;;;9.15;7.40;;;18.90;81.40;;;;;;4914551;29;20136;-83
2022/09/12 13:35:19;;;;;;;8.77;7.43;;;18.90;81.60;;;;;;4894801;29;20024;-84